createdAt,value
2024-04-06T00:00:40.889Z,9.443482
2024-04-06T00:01:40.743Z,9.443658
2024-04-06T00:02:40.720Z,9.443718
2024-04-06T00:03:40.726Z,9.443674
2024-04-06T00:04:40.705Z,9.443639
2024-04-06T00:05:40.710Z,9.443593
2024-04-06T00:06:40.677Z,9.443733
2024-04-06T00:07:40.694Z,9.443733
2024-04-06T00:08:40.672Z,9.443751
2024-04-06T00:09:41.690Z,9.443658
2024-04-06T00:10:40.662Z,9.443585
2024-04-06T00:11:40.750Z,9.443610
2024-04-06T00:12:40.688Z,9.443660
2024-04-06T00:13:40.649Z,9.443786
2024-04-06T00:14:40.640Z,9.443708
2024-04-06T00:15:40.655Z,9.443686
2024-04-06T00:16:40.695Z,9.443664
2024-04-06T00:17:40.641Z,9.443576
2024-04-06T00:18:40.626Z,9.443666
2024-04-06T00:19:40.624Z,9.443727
2024-04-06T00:20:40.608Z,9.443704
2024-04-06T00:21:40.594Z,9.443722
2024-04-06T00:22:40.674Z,9.443702
2024-04-06T00:23:40.596Z,9.443719
2024-04-06T00:24:40.590Z,9.443703
2024-04-06T00:25:40.949Z,9.443652
2024-04-06T00:26:40.656Z,9.443629
2024-04-06T00:27:40.576Z,9.443593
2024-04-06T00:28:40.607Z,9.443616
2024-04-06T00:29:40.550Z,9.443682
2024-04-06T00:30:40.599Z,9.443700
2024-04-06T00:31:41.534Z,9.443731
2024-04-06T00:32:40.575Z,9.443724
2024-04-06T00:33:41.320Z,9.443777
2024-04-06T00:34:40.542Z,9.443803
2024-04-06T00:35:40.526Z,9.443826
2024-04-06T00:36:40.570Z,9.443801
2024-04-06T00:37:40.504Z,9.443706
2024-04-06T00:38:40.527Z,9.443662
2024-04-06T00:39:40.514Z,9.443708
2024-04-06T00:40:40.493Z,9.443701
2024-04-06T00:41:40.491Z,9.443639
2024-04-06T00:42:40.498Z,9.443706
2024-04-06T00:43:40.472Z,9.443719
2024-04-06T00:44:40.464Z,9.443725
2024-04-06T00:45:40.448Z,9.443711
2024-04-06T00:46:40.456Z,9.443765
2024-04-06T00:47:40.455Z,9.443712
2024-04-06T00:48:40.443Z,9.443725
2024-04-06T00:49:40.482Z,9.443722
2024-04-06T00:50:40.434Z,9.443772
2024-04-06T00:51:40.555Z,9.443776
2024-04-06T00:52:40.415Z,9.443732
2024-04-06T00:53:40.403Z,9.443675
2024-04-06T00:54:40.404Z,9.443663
2024-04-06T00:55:40.433Z,9.443659
2024-04-06T00:56:40.408Z,9.443711
2024-04-06T00:57:40.400Z,9.443439
2024-04-06T00:58:40.372Z,9.443669
2024-04-06T00:59:40.439Z,9.443634
2024-04-06T01:00:40.438Z,9.443668
2024-04-06T01:01:47.028Z,9.443800
2024-04-06T01:02:42.387Z,9.443769
2024-04-06T01:03:40.348Z,9.443705
2024-04-06T01:04:40.351Z,9.443736
2024-04-06T01:05:40.340Z,9.443756
2024-04-06T01:06:40.355Z,9.443686
2024-04-06T01:07:40.362Z,9.443784
2024-04-06T01:08:40.306Z,9.443824
2024-04-06T01:09:40.315Z,9.443699
2024-04-06T01:10:40.331Z,9.443752
2024-04-06T01:11:40.336Z,9.443746
2024-04-06T01:12:40.282Z,9.443632
2024-04-06T01:13:40.319Z,9.443696
2024-04-06T01:14:41.309Z,9.443681
2024-04-06T01:15:40.307Z,9.443646
2024-04-06T01:16:40.288Z,9.443759
2024-04-06T01:17:40.294Z,9.443680
2024-04-06T01:18:40.247Z,9.443589
2024-04-06T01:19:40.250Z,9.443713
2024-04-06T01:20:40.251Z,9.443697
2024-04-06T01:21:40.295Z,9.443736
2024-04-06T01:22:40.241Z,9.443755
2024-04-06T01:23:40.239Z,9.443789
2024-04-06T01:24:40.228Z,9.443796
2024-04-06T01:25:40.214Z,9.443758
2024-04-06T01:26:40.240Z,9.443633
2024-04-06T01:27:40.201Z,9.443641
2024-04-06T01:28:40.832Z,9.443663
2024-04-06T01:29:40.182Z,9.443650
2024-04-06T01:30:40.187Z,9.443723
2024-04-06T01:31:40.214Z,9.443588
2024-04-06T01:32:40.269Z,9.443797
2024-04-06T01:33:40.170Z,9.443755
2024-04-06T01:34:40.295Z,9.443697
2024-04-06T01:35:40.155Z,9.443642
2024-04-06T01:36:40.164Z,9.443707
2024-04-06T01:37:40.166Z,9.443738
2024-04-06T01:38:40.134Z,9.443738
2024-04-06T01:39:40.130Z,9.443739
2024-04-06T01:40:40.137Z,9.443815
2024-04-06T01:41:40.144Z,9.443883
2024-04-06T01:42:41.131Z,9.443767
2024-04-06T01:43:40.259Z,9.443792
2024-04-06T01:44:40.141Z,9.443790
2024-04-06T01:45:40.198Z,9.443792
2024-04-06T01:46:40.089Z,9.443745
2024-04-06T01:47:40.104Z,9.443751
2024-04-06T01:48:40.104Z,9.443754
2024-04-06T01:49:40.081Z,9.443784
2024-04-06T01:50:40.085Z,9.443699
2024-04-06T01:51:40.067Z,9.443797
2024-04-06T01:52:40.061Z,9.443835
2024-04-06T01:53:40.091Z,9.443832
2024-04-06T01:54:40.078Z,9.443823
2024-04-06T01:55:40.049Z,9.443811
2024-04-06T01:56:40.035Z,9.443802
2024-04-06T01:57:40.020Z,9.443785
2024-04-06T01:58:40.045Z,9.443726
2024-04-06T01:59:40.039Z,9.443789
2024-04-06T02:00:40.055Z,9.443702
2024-04-06T02:01:40.023Z,9.443708
2024-04-06T02:02:40.184Z,9.443648
2024-04-06T02:03:40.025Z,9.443736
2024-04-06T02:04:40.021Z,9.443701
2024-04-06T02:05:39.984Z,9.443717
2024-04-06T02:06:40.011Z,9.443665
2024-04-06T02:07:39.957Z,9.443703
2024-04-06T02:08:39.948Z,9.443688
2024-04-06T02:09:39.983Z,9.443661
2024-04-06T02:10:39.988Z,9.443716
2024-04-06T02:11:39.954Z,9.443812
2024-04-06T02:12:39.927Z,9.443830
2024-04-06T02:13:39.931Z,9.443747
2024-04-06T02:14:39.925Z,9.443781
2024-04-06T02:15:40.003Z,9.443770
2024-04-06T02:16:39.907Z,9.443843
2024-04-06T02:17:39.953Z,9.443824
2024-04-06T02:18:39.906Z,9.443847
2024-04-06T02:19:40.077Z,9.443788
2024-04-06T02:20:39.923Z,9.443717
2024-04-06T02:21:39.912Z,9.443736
2024-04-06T02:22:39.890Z,9.443767
2024-04-06T02:23:39.915Z,9.443731
2024-04-06T02:24:39.888Z,9.443727
2024-04-06T02:25:39.993Z,9.443702
2024-04-06T02:26:39.939Z,9.443710
2024-04-06T02:27:39.875Z,9.443739
2024-04-06T02:28:40.839Z,9.443703
2024-04-06T02:29:39.978Z,9.443658
2024-04-06T02:30:39.859Z,9.443721
2024-04-06T02:31:39.819Z,9.443724
2024-04-06T02:32:39.830Z,9.443754
2024-04-06T02:33:39.887Z,9.443747
2024-04-06T02:34:39.812Z,9.443752
2024-04-06T02:35:39.873Z,9.443748
2024-04-06T02:36:39.780Z,9.443702
2024-04-06T02:37:39.801Z,9.443727
2024-04-06T02:38:39.786Z,9.443767
2024-04-06T02:39:39.785Z,9.443770
2024-04-06T02:40:39.799Z,9.443737
2024-04-06T02:41:39.763Z,9.443704
2024-04-06T02:42:40.135Z,9.443697
2024-04-06T02:43:39.743Z,9.443635
2024-04-06T02:44:39.732Z,9.443653
2024-04-06T02:45:39.770Z,9.443699
2024-04-06T02:46:39.736Z,9.443728
2024-04-06T02:47:39.783Z,9.443727
2024-04-06T02:48:39.709Z,9.443735
2024-04-06T02:49:39.697Z,9.443686
2024-04-06T02:50:39.699Z,9.443624
2024-04-06T02:51:39.695Z,9.443684
2024-04-06T02:52:39.700Z,9.443712
2024-04-06T02:53:39.669Z,9.443721
2024-04-06T02:54:39.691Z,9.443737
2024-04-06T02:55:39.689Z,9.443706
2024-04-06T02:56:39.660Z,9.443674
2024-04-06T02:57:39.673Z,9.443718
2024-04-06T02:58:39.671Z,9.443707
2024-04-06T02:59:39.667Z,9.443761
2024-04-06T03:00:39.643Z,9.443788
2024-04-06T03:01:39.626Z,9.443694
2024-04-06T03:02:39.670Z,9.443754
2024-04-06T03:03:39.643Z,9.443642
2024-04-06T03:04:39.613Z,9.443633
2024-04-06T03:05:39.613Z,9.443653
2024-04-06T03:06:39.609Z,9.443701
2024-04-06T03:07:39.610Z,9.443769
2024-04-06T03:08:39.613Z,9.443732
2024-04-06T03:09:39.607Z,9.443725
2024-04-06T03:10:39.602Z,9.443697
2024-04-06T03:11:39.573Z,9.443715
2024-04-06T03:12:39.564Z,9.443772
2024-04-06T03:13:39.582Z,9.443769
2024-04-06T03:14:39.557Z,9.443756
2024-04-06T03:15:39.578Z,9.443739
2024-04-06T03:16:39.553Z,9.443736
2024-04-06T03:17:39.635Z,9.443687
2024-04-06T03:18:39.527Z,9.443783
2024-04-06T03:19:39.588Z,9.443872
2024-04-06T03:20:39.532Z,9.443962
2024-04-06T03:21:39.517Z,9.443849
2024-04-06T03:22:39.504Z,9.443790
2024-04-06T03:23:39.506Z,9.443743
2024-04-06T03:24:39.552Z,9.443741
2024-04-06T03:25:39.507Z,9.443718
2024-04-06T03:26:39.485Z,9.443747
2024-04-06T03:27:39.492Z,9.443823
2024-04-06T03:28:39.494Z,9.443705
2024-04-06T03:29:39.459Z,9.443605
2024-04-06T03:30:39.495Z,9.443727
2024-04-06T03:31:39.457Z,9.443851
2024-04-06T03:32:39.548Z,9.443801
2024-04-06T03:33:39.467Z,9.443756
2024-04-06T03:34:39.467Z,9.443714
2024-04-06T03:35:39.461Z,9.443801
2024-04-06T03:36:39.429Z,9.443862
2024-04-06T03:37:39.438Z,9.443778
2024-04-06T03:38:39.428Z,9.443761
2024-04-06T03:39:39.498Z,9.443717
2024-04-06T03:40:39.390Z,9.443793
2024-04-06T03:41:39.420Z,9.443680
2024-04-06T03:42:39.388Z,9.443687
2024-04-06T03:43:39.416Z,9.443680
2024-04-06T03:44:39.385Z,9.443855
2024-04-06T03:45:39.451Z,9.443816
2024-04-06T03:46:39.378Z,9.443764
2024-04-06T03:47:39.472Z,9.443747
2024-04-06T03:48:39.379Z,9.443590
2024-04-06T03:49:39.366Z,9.443752
2024-04-06T03:50:39.349Z,9.443755
2024-04-06T03:51:39.342Z,9.443855
2024-04-06T03:52:39.334Z,9.443682
2024-04-06T03:53:39.340Z,9.443727
2024-04-06T03:54:39.320Z,9.443664
2024-04-06T03:55:39.324Z,9.443644
2024-04-06T03:56:39.338Z,9.443735
2024-04-06T03:57:39.329Z,9.443740
2024-04-06T03:58:39.303Z,9.443745
2024-04-06T03:59:39.293Z,9.443738
2024-04-06T04:00:39.393Z,9.443704
2024-04-06T04:01:39.310Z,9.443717
2024-04-06T04:02:39.300Z,9.443720
2024-04-06T04:03:39.413Z,9.443692
2024-04-06T04:04:39.350Z,9.443683
2024-04-06T04:05:39.395Z,9.443666
2024-04-06T04:06:39.294Z,9.443654
2024-04-06T04:07:39.277Z,9.443670
2024-04-06T04:08:39.268Z,9.443608
2024-04-06T04:09:39.303Z,9.443592
2024-04-06T04:10:40.326Z,9.443583
2024-04-06T04:11:39.248Z,9.443718
2024-04-06T04:12:40.301Z,9.443651
2024-04-06T04:13:39.226Z,9.443641
2024-04-06T04:14:39.221Z,9.443643
2024-04-06T04:15:39.254Z,9.443618
2024-04-06T04:16:39.328Z,9.443588
2024-04-06T04:17:39.399Z,9.443669
2024-04-06T04:18:39.191Z,9.443646
2024-04-06T04:19:39.163Z,9.443649
2024-04-06T04:20:39.915Z,9.443639
2024-04-06T04:21:39.225Z,9.443687
2024-04-06T04:22:40.207Z,9.443692
2024-04-06T04:23:39.249Z,9.443658
2024-04-06T04:24:39.185Z,9.443626
2024-04-06T04:25:39.142Z,9.443635
2024-04-06T04:26:39.214Z,9.443656
2024-04-06T04:27:39.144Z,9.443624
2024-04-06T04:28:39.123Z,9.443663
2024-04-06T04:29:39.124Z,9.443654
2024-04-06T04:30:39.116Z,9.443623
2024-04-06T04:31:39.085Z,9.443622
2024-04-06T04:32:39.256Z,9.443568
2024-04-06T04:33:39.104Z,9.443595
2024-04-06T04:34:40.242Z,9.443634
2024-04-06T04:35:39.107Z,9.443655
2024-04-06T04:36:39.954Z,9.443641
2024-04-06T04:37:39.202Z,9.443624
2024-04-06T04:38:39.121Z,9.443625
2024-04-06T04:39:39.063Z,9.443588
2024-04-06T04:40:39.052Z,9.443602
2024-04-06T04:41:39.070Z,9.443667
2024-04-06T04:42:39.091Z,9.443648
2024-04-06T04:43:39.034Z,9.443682
2024-04-06T04:44:41.491Z,9.443737
2024-04-06T04:45:39.042Z,9.443736
2024-04-06T04:46:39.038Z,9.443604
2024-04-06T04:47:39.180Z,9.443523
2024-04-06T04:48:39.015Z,9.443586
2024-04-06T04:49:39.106Z,9.443665
2024-04-06T04:50:39.015Z,9.443698
2024-04-06T04:51:38.990Z,9.443717
2024-04-06T04:52:38.992Z,9.443689
2024-04-06T04:53:39.016Z,9.443751
2024-04-06T04:54:38.985Z,9.443673
2024-04-06T04:55:38.988Z,9.443702
2024-04-06T04:56:38.969Z,9.443708
2024-04-06T04:57:38.962Z,9.443696
2024-04-06T04:58:39.026Z,9.443698
2024-04-06T04:59:38.973Z,9.443677
2024-04-06T05:00:38.972Z,9.443708
2024-04-06T05:01:38.935Z,9.443727
2024-04-06T05:02:38.944Z,9.443596
2024-04-06T05:03:38.935Z,9.443664
2024-04-06T05:04:38.942Z,9.443734
2024-04-06T05:05:38.919Z,9.443669
2024-04-06T05:06:39.912Z,9.443765
2024-04-06T05:07:38.919Z,9.443733
2024-04-06T05:08:38.919Z,9.443773
2024-04-06T05:09:38.903Z,9.443691
2024-04-06T05:10:38.902Z,9.443726
2024-04-06T05:11:38.905Z,9.443746
2024-04-06T05:12:38.886Z,9.443861
2024-04-06T05:13:39.962Z,9.443816
2024-04-06T05:14:38.867Z,9.443774
2024-04-06T05:15:38.878Z,9.443768
2024-04-06T05:16:38.860Z,9.443748
2024-04-06T05:17:38.982Z,9.443755
2024-04-06T05:18:38.896Z,9.443762
2024-04-06T05:19:38.869Z,9.443766
2024-04-06T05:20:38.821Z,9.443749
2024-04-06T05:21:38.903Z,9.443731
2024-04-06T05:22:38.831Z,9.443708
2024-04-06T05:23:38.842Z,9.443769
2024-04-06T05:24:38.808Z,9.443842
2024-04-06T05:25:38.900Z,9.443661
2024-04-06T05:26:38.834Z,9.443632
2024-04-06T05:27:41.542Z,9.443720
2024-04-06T05:28:39.867Z,9.443730
2024-04-06T05:29:38.763Z,9.443656
2024-04-06T05:30:38.786Z,9.443742
2024-04-06T05:31:38.768Z,9.443831
2024-04-06T05:32:38.799Z,9.443688
2024-04-06T05:33:38.766Z,9.443666
2024-04-06T05:34:38.791Z,9.443728
2024-04-06T05:35:38.777Z,9.443691
2024-04-06T05:36:38.718Z,9.443672
2024-04-06T05:37:39.729Z,9.443670
2024-04-06T05:38:38.744Z,9.443680
2024-04-06T05:39:38.746Z,9.443718
2024-04-06T05:40:38.720Z,9.443609
2024-04-06T05:41:38.765Z,9.443744
2024-04-06T05:42:40.463Z,9.443645
2024-04-06T05:43:38.669Z,9.443634
2024-04-06T05:44:38.784Z,9.443616
2024-04-06T05:45:38.754Z,9.443654
2024-04-06T05:46:38.651Z,9.443648
2024-04-06T05:47:38.698Z,9.443755
2024-04-06T05:48:38.690Z,9.443700
2024-04-06T05:49:38.666Z,9.443638
2024-04-06T05:50:38.694Z,9.443602
2024-04-06T05:51:38.654Z,9.443654
2024-04-06T05:52:38.613Z,9.443630
2024-04-06T05:53:38.649Z,9.443710
2024-04-06T05:54:38.606Z,9.443588
2024-04-06T05:55:38.660Z,9.443695
2024-04-06T05:56:38.698Z,9.443739
2024-04-06T05:57:38.597Z,9.443678
2024-04-06T05:58:38.575Z,9.443414
2024-04-06T05:59:38.621Z,9.443497
2024-04-06T06:00:38.556Z,9.443422
2024-04-06T06:01:38.571Z,9.443424
2024-04-06T06:02:38.578Z,9.443417
2024-04-06T06:03:38.576Z,9.443501
2024-04-06T06:04:38.538Z,9.443734
2024-04-06T06:05:38.595Z,9.443672
2024-04-06T06:06:39.346Z,9.443667
2024-04-06T06:07:38.629Z,9.443729
2024-04-06T06:08:38.554Z,9.443758
2024-04-06T06:09:38.537Z,9.443722
2024-04-06T06:10:38.506Z,9.443931
2024-04-06T06:11:38.561Z,9.443911
2024-04-06T06:12:38.488Z,9.443780
2024-04-06T06:13:38.482Z,9.443728
2024-04-06T06:14:38.559Z,9.443652
2024-04-06T06:15:39.505Z,9.443742
2024-04-06T06:16:39.475Z,9.443644
2024-04-06T06:17:38.461Z,9.443624
2024-04-06T06:18:38.485Z,9.443627
2024-04-06T06:19:38.476Z,9.443729
2024-04-06T06:20:38.513Z,9.443767
2024-04-06T06:21:38.459Z,9.443720
2024-04-06T06:22:38.425Z,9.443696
2024-04-06T06:23:38.514Z,9.443729
2024-04-06T06:24:38.480Z,9.443802
2024-04-06T06:25:38.420Z,9.443696
2024-04-06T06:26:38.470Z,9.443753
2024-04-06T06:27:38.436Z,9.443745
2024-04-06T06:28:38.526Z,9.443756
2024-04-06T06:29:38.524Z,9.443736
2024-04-06T06:30:38.423Z,9.443764
2024-04-06T06:31:38.390Z,9.443723
2024-04-06T06:32:38.413Z,9.443738
2024-04-06T06:33:38.420Z,9.443697
2024-04-06T06:34:38.375Z,9.443703
2024-04-06T06:37:52.886Z,9.443715
2024-04-06T06:40:41.184Z,9.443747
2024-04-06T06:40:41.654Z,9.443737
2024-04-06T06:41:40.794Z,9.443750
2024-04-06T06:42:38.301Z,9.443725
2024-04-06T06:43:38.314Z,9.443742
2024-04-06T06:44:38.366Z,9.443707
2024-04-06T06:45:38.297Z,9.443674
2024-04-06T06:46:38.273Z,9.443691
2024-04-06T06:47:38.308Z,9.443715
2024-04-06T06:48:38.286Z,9.443728
2024-04-06T06:49:38.300Z,9.443761
2024-04-06T06:50:38.347Z,9.443763
2024-04-06T06:51:38.246Z,9.443736
2024-04-06T06:52:38.248Z,9.443705
2024-04-06T06:53:38.281Z,9.443741
2024-04-06T06:54:41.406Z,9.443729
2024-04-06T06:55:38.228Z,9.443746
2024-04-06T06:56:38.304Z,9.443769
2024-04-06T06:57:38.227Z,9.443764
2024-04-06T06:58:38.199Z,9.443721
2024-04-06T07:00:39.248Z,9.443691
2024-04-06T07:01:39.855Z,9.443687
2024-04-06T07:02:39.192Z,9.443673
2024-04-06T07:03:38.172Z,9.443712
2024-04-06T07:04:38.173Z,9.443762
2024-04-06T07:05:38.188Z,9.443664
2024-04-06T07:07:39.215Z,9.443739
2024-04-06T07:08:38.149Z,9.443633
2024-04-06T07:09:38.166Z,9.443662
2024-04-06T07:10:38.152Z,9.443733
2024-04-06T07:11:38.132Z,9.443707
2024-04-06T07:12:38.114Z,9.443718
2024-04-06T07:13:38.136Z,9.443827
2024-04-06T07:14:38.124Z,9.443749
2024-04-06T07:15:38.097Z,9.443769
2024-04-06T07:16:38.314Z,9.443748
2024-04-06T07:17:38.094Z,9.443740
2024-04-06T07:18:38.093Z,9.443814
2024-04-06T07:19:38.111Z,9.443814
2024-04-06T07:20:38.076Z,9.443827
2024-04-06T07:21:38.105Z,9.443745
2024-04-06T07:22:38.096Z,9.443746
2024-04-06T07:23:38.058Z,9.443712
2024-04-06T07:24:38.082Z,9.443717
2024-04-06T07:25:38.033Z,9.443765
2024-04-06T07:26:38.073Z,9.443736
2024-04-06T07:27:38.029Z,9.443751
2024-04-06T07:28:38.027Z,9.443762
2024-04-06T07:29:38.076Z,9.443776
2024-04-06T07:30:37.999Z,9.443747
2024-04-06T07:31:38.176Z,9.443713
2024-04-06T07:32:37.991Z,9.443734
2024-04-06T07:33:38.004Z,9.443638
2024-04-06T07:34:37.970Z,9.443769
2024-04-06T07:35:37.984Z,9.443681
2024-04-06T07:36:38.001Z,9.443634
2024-04-06T07:37:37.969Z,9.443654
2024-04-06T07:39:19.856Z,9.443693
2024-04-06T07:39:39.956Z,9.443744
2024-04-06T07:40:37.950Z,9.443764
2024-04-06T07:41:37.936Z,9.443709
2024-04-06T07:42:37.956Z,9.443543
2024-04-06T07:43:37.935Z,9.443649
2024-04-06T07:44:37.926Z,9.443588
2024-04-06T07:45:37.903Z,9.443640
2024-04-06T07:46:37.919Z,9.443717
2024-04-06T07:47:37.908Z,9.443674
2024-04-06T07:48:37.919Z,9.443639
2024-04-06T07:49:37.890Z,9.443692
2024-04-06T07:50:37.879Z,9.443748
2024-04-06T07:51:37.888Z,9.443773
2024-04-06T07:52:37.870Z,9.443727
2024-04-06T07:53:37.929Z,9.443654
2024-04-06T07:54:37.863Z,9.443629
2024-04-06T07:55:37.863Z,9.443575
2024-04-06T07:56:37.857Z,9.443595
2024-04-06T07:57:37.861Z,9.443669
2024-04-06T07:58:37.831Z,9.443735
2024-04-06T07:59:37.946Z,9.443800
2024-04-06T08:00:37.821Z,9.443591
2024-04-06T08:01:37.808Z,9.443687
2024-04-06T08:02:37.814Z,9.443733
2024-04-06T08:03:37.817Z,9.443727
2024-04-06T08:04:37.848Z,9.443775
2024-04-06T08:05:37.798Z,9.443806
2024-04-06T08:06:37.792Z,9.443795
2024-04-06T08:07:37.792Z,9.443548
2024-04-06T08:08:37.791Z,9.443442
2024-04-06T08:09:37.824Z,9.443599
2024-04-06T08:10:37.783Z,9.443672
2024-04-06T08:11:37.771Z,9.443687
2024-04-06T08:12:38.061Z,9.443639
2024-04-06T08:13:37.768Z,9.443672
2024-04-06T08:14:37.732Z,9.443733
2024-04-06T08:15:37.738Z,9.443739
2024-04-06T08:16:37.725Z,9.443740
2024-04-06T08:17:37.749Z,9.443774
2024-04-06T08:18:37.701Z,9.443707
2024-04-06T08:19:37.737Z,9.443707
2024-04-06T08:20:37.732Z,9.443644
2024-04-06T08:21:37.716Z,9.443657
2024-04-06T08:22:37.690Z,9.443581
2024-04-06T08:23:37.675Z,9.443630
2024-04-06T08:24:37.680Z,9.443682
2024-04-06T08:25:37.666Z,9.443579
2024-04-06T08:26:37.652Z,9.443671
2024-04-06T08:27:37.664Z,9.443653
2024-04-06T08:28:37.643Z,9.443575
2024-04-06T08:29:37.653Z,9.443527
2024-04-06T08:30:37.603Z,9.443500
2024-04-06T08:31:37.658Z,9.443499
2024-04-06T08:32:37.625Z,9.443531
2024-04-06T08:33:37.634Z,9.443614
2024-04-06T08:34:37.639Z,9.443679
2024-04-06T08:35:37.608Z,9.443650
2024-04-06T08:36:37.628Z,9.443600
2024-04-06T08:37:37.605Z,9.443632
2024-04-06T08:38:37.598Z,9.443650
2024-04-06T08:39:37.601Z,9.443697
2024-04-06T08:40:37.645Z,9.443675
2024-04-06T08:41:37.589Z,9.443678
2024-04-06T08:42:37.573Z,9.443693
2024-04-06T08:43:37.573Z,9.443700
2024-04-06T08:44:37.553Z,9.443718
2024-04-06T08:45:37.589Z,9.443766
2024-04-06T08:46:37.559Z,9.443768
2024-04-06T08:47:37.598Z,9.443707
2024-04-06T08:48:37.531Z,9.443685
2024-04-06T08:49:37.541Z,9.443701
2024-04-06T08:50:37.549Z,9.443700
2024-04-06T08:51:37.513Z,9.443687
2024-04-06T08:52:37.488Z,9.443666
2024-04-06T08:53:37.507Z,9.443641
2024-04-06T08:54:37.488Z,9.443666
2024-04-06T08:55:37.473Z,9.443709
2024-04-06T08:56:37.476Z,9.443678
2024-04-06T08:57:37.452Z,9.443759
2024-04-06T08:58:37.477Z,9.443675
2024-04-06T08:59:37.457Z,9.443520
2024-04-06T09:00:37.446Z,9.443731
2024-04-06T09:01:37.476Z,9.443748
2024-04-06T09:02:37.445Z,9.443834
2024-04-06T09:03:37.442Z,9.443742
2024-04-06T09:04:37.417Z,9.443707
2024-04-06T09:05:37.412Z,9.443745
2024-04-06T09:06:37.432Z,9.443732
2024-04-06T09:07:37.407Z,9.443715
2024-04-06T09:08:37.403Z,9.443700
2024-04-06T09:09:37.400Z,9.443757
2024-04-06T09:10:37.406Z,9.443748
2024-04-06T09:11:37.369Z,9.443836
2024-04-06T09:12:37.391Z,9.443578
2024-04-06T09:13:37.374Z,9.443544
2024-04-06T09:14:37.385Z,9.443656
2024-04-06T09:15:37.442Z,9.443739
2024-04-06T09:16:37.406Z,9.443807
2024-04-06T09:17:37.451Z,9.443638
2024-04-06T09:18:37.432Z,9.443712
2024-04-06T09:19:37.409Z,9.443717
2024-04-06T09:20:37.338Z,9.443746
2024-04-06T09:21:37.373Z,9.443712
2024-04-06T09:22:37.330Z,9.443752
2024-04-06T09:23:37.431Z,9.443766
2024-04-06T09:24:37.326Z,9.443701
2024-04-06T09:25:37.298Z,9.443778
2024-04-06T09:26:37.329Z,9.443897
2024-04-06T09:27:37.268Z,9.443800
2024-04-06T09:28:37.472Z,9.443724
2024-04-06T09:29:37.345Z,9.443729
2024-04-06T09:30:37.327Z,9.443760
2024-04-06T09:31:37.338Z,9.443785
2024-04-06T09:32:37.279Z,9.443828
2024-04-06T09:33:37.240Z,9.443725
2024-04-06T09:34:37.483Z,9.443661
2024-04-06T09:35:37.336Z,9.443686
2024-04-06T09:36:37.326Z,9.443758
2024-04-06T09:37:37.278Z,9.443700
2024-04-06T09:38:37.245Z,9.443664
2024-04-06T09:39:37.426Z,9.443686
2024-04-06T09:40:37.212Z,9.443678
2024-04-06T09:41:37.192Z,9.443583
2024-04-06T09:42:37.209Z,9.443609
2024-04-06T09:43:37.186Z,9.443622
2024-04-06T09:44:37.187Z,9.443722
2024-04-06T09:45:37.251Z,9.443773
2024-04-06T09:46:37.162Z,9.443744
2024-04-06T09:47:37.181Z,9.443874
2024-04-06T09:48:37.194Z,9.443744
2024-04-06T09:49:37.222Z,9.443665
2024-04-06T09:50:37.221Z,9.443870
2024-04-06T09:51:37.129Z,9.443709
2024-04-06T09:52:37.160Z,9.443705
2024-04-06T09:53:37.138Z,9.443562
2024-04-06T09:54:37.115Z,9.443659
2024-04-06T09:55:37.129Z,9.443707
2024-04-06T09:56:37.132Z,9.443864
2024-04-06T09:57:37.105Z,9.443857
2024-04-06T09:58:37.089Z,9.443877
2024-04-06T09:59:37.094Z,9.443712
2024-04-06T10:00:37.143Z,9.443871
2024-04-06T10:01:37.080Z,9.443750
2024-04-06T10:02:37.078Z,9.443699
2024-04-06T10:03:37.064Z,9.443719
2024-04-06T10:04:37.068Z,9.443690
2024-04-06T10:05:37.087Z,9.443666
2024-04-06T10:06:37.408Z,9.443621
2024-04-06T10:07:37.061Z,9.443721
2024-04-06T10:08:37.079Z,9.443748
2024-04-06T10:09:37.047Z,9.443789
2024-04-06T10:10:37.137Z,9.443771
2024-04-06T10:11:37.067Z,9.443773
2024-04-06T10:12:37.061Z,9.443758
2024-04-06T10:13:37.038Z,9.443761
2024-04-06T10:14:37.033Z,9.443804
2024-04-06T10:15:37.060Z,9.443770
2024-04-06T10:16:37.030Z,9.443729
2024-04-06T10:17:37.025Z,9.443778
2024-04-06T10:18:37.075Z,9.443807
2024-04-06T10:19:36.986Z,9.443821
2024-04-06T10:20:36.985Z,9.443805
2024-04-06T10:21:36.999Z,9.443790
2024-04-06T10:22:36.996Z,9.443803
2024-04-06T10:23:37.021Z,9.443821
2024-04-06T10:24:36.966Z,9.443824
2024-04-06T10:25:36.983Z,9.443786
2024-04-06T10:26:36.974Z,9.443800
2024-04-06T10:27:36.957Z,9.443891
2024-04-06T10:28:36.953Z,9.443884
2024-04-06T10:29:36.973Z,9.443829
2024-04-06T10:30:36.938Z,9.443834
2024-04-06T10:31:46.017Z,9.443841
2024-04-06T10:32:38.908Z,9.443879
2024-04-06T10:33:36.928Z,9.443890
2024-04-06T10:34:46.132Z,9.443864
2024-04-06T10:35:38.892Z,9.443702
2024-04-06T10:36:36.878Z,9.443739
2024-04-06T10:37:36.876Z,9.443748
2024-04-06T10:38:36.910Z,9.443745
2024-04-06T10:39:36.881Z,9.443734
2024-04-06T10:40:36.832Z,9.443808
2024-04-06T10:41:36.852Z,9.443720
2024-04-06T10:42:36.836Z,9.443703
2024-04-06T10:43:36.855Z,9.443654
2024-04-06T10:44:36.825Z,9.443709
2024-04-06T10:45:36.816Z,9.443673
2024-04-06T10:46:36.839Z,9.443668
2024-04-06T10:47:36.808Z,9.443781
2024-04-06T10:48:36.816Z,9.443827
2024-04-06T10:49:36.826Z,9.443781
2024-04-06T10:50:36.847Z,9.443818
2024-04-06T10:51:36.834Z,9.443753
2024-04-06T10:52:36.769Z,9.443770
2024-04-06T10:53:36.836Z,9.443927
2024-04-06T10:54:38.939Z,9.443773
2024-04-06T10:55:37.823Z,9.443746
2024-04-06T10:56:36.777Z,9.443719
2024-04-06T10:57:36.854Z,9.443795
2024-04-06T10:58:36.757Z,9.443868
2024-04-06T10:59:36.757Z,9.443920
2024-04-06T11:00:38.215Z,9.443859
2024-04-06T11:01:37.760Z,9.443753
2024-04-06T11:02:36.727Z,9.443737
2024-04-06T11:03:36.751Z,9.443692
2024-04-06T11:04:36.695Z,9.443724
2024-04-06T11:05:36.836Z,9.443745
2024-04-06T11:06:39.148Z,9.443731
2024-04-06T11:07:37.674Z,9.443724
2024-04-06T11:08:36.714Z,9.443727
2024-04-06T11:09:37.408Z,9.443707
2024-04-06T11:10:36.710Z,9.443723
2024-04-06T11:11:36.981Z,9.443739
2024-04-06T11:12:38.994Z,9.443762
2024-04-06T11:13:37.660Z,9.443727
2024-04-06T11:14:36.675Z,9.443731
2024-04-06T11:15:36.671Z,9.443717
2024-04-06T11:16:36.654Z,9.443727
2024-04-06T11:17:36.622Z,9.443742
2024-04-06T11:18:36.679Z,9.443724
2024-04-06T11:19:36.616Z,9.443727
2024-04-06T11:20:36.626Z,9.443738
2024-04-06T11:21:36.655Z,9.443709
2024-04-06T11:22:36.603Z,9.443700
2024-04-06T11:23:36.675Z,9.443675
2024-04-06T11:24:38.812Z,9.443678
2024-04-06T11:25:37.588Z,9.443702
2024-04-06T11:26:36.611Z,9.443676
2024-04-06T11:27:36.579Z,9.443628
2024-04-06T11:28:36.596Z,9.443685
2024-04-06T11:29:36.588Z,9.443676
2024-04-06T11:30:36.557Z,9.443692
2024-04-06T11:31:36.580Z,9.443682
2024-04-06T11:32:36.595Z,9.443661
2024-04-06T11:33:36.923Z,9.443737
2024-04-06T11:34:36.582Z,9.443731
2024-04-06T11:35:36.569Z,9.443644
2024-04-06T11:36:36.536Z,9.443577
2024-04-06T11:37:36.537Z,9.443702
2024-04-06T11:38:36.584Z,9.443745
2024-04-06T11:39:36.530Z,9.443750
2024-04-06T11:40:36.536Z,9.443734
2024-04-06T11:41:36.547Z,9.443697
2024-04-06T11:42:36.510Z,9.443694
2024-04-06T11:43:36.496Z,9.443694
2024-04-06T11:44:36.487Z,9.443737
2024-04-06T11:45:36.535Z,9.443703
2024-04-06T11:46:36.482Z,9.443719
2024-04-06T11:47:36.504Z,9.443715
2024-04-06T11:48:36.477Z,9.443708
2024-04-06T11:49:36.523Z,9.443755